Avon, Connecticut
Current Conditions -  °F | °C
As of 7:53 AM on Tuesday 21 Oct 2014 (Local Time) from KHFD Reporting Station
Scattered Clouds Scattered Clouds  
Wind Chill: 45°   Ceiling: Unl
Heat Index: 47°   Visibility: 10mi
Dew Point: 42°   Wind: 5mph
Humidity: 83%   Direction: NA
Pressure: 29.94"   Gusts: NA
Location:  41.81°N, 72.83°W
Report Text: KHFD 211153Z VRB04KT 10SM SCT110 08/06 A2994 RMK AO2 SLP139 T00830056 10083 20061 53004
Loading
Personal Weather Stations






























Interactive Weather Map
Tropical Storm Tracking
New forecast layout! Learn more

10-Day Weather Forecast

Advertisements
Track Severe Weather on mobile